KDPG/DPG METAR and TAF weather

Enter ICAO airport designator
Station Type Date Time Source
KDPG METAR 2022/12/01 23:55 UTC NOAA

KDPG 012355Z 13015G23KT 1SM BLDU SCT110 BKN180 09/M04 A2968 RMK PK WND 13025/2320 SLP032 T00941038 10111 20071 57010 LAST


Station Type Date Time Source
KDPG Decoded METAR 2022/12/01 23:55 UTC NOAA

Dugway Proving Grounds, UT, United States (KDPG) 40-10N 112-56W 1325M
Dec 01, 2022 - 06:55 PM EST / 2022.12.01 2355 UTC
Wind: from the SE (130 degrees) at 17 MPH (15 KT) gusting to 26 MPH (23 KT):0
Visibility: 1 mile(s):0
Sky conditions: mostly cloudy
Weather: blowing widespread dust
Temperature: 48.9 F (9.4 C)
Dew Point: 25.2 F (-3.8 C)
Relative Humidity: 39%
Pressure (altimeter): 29.68 in. Hg (1005 hPa)
Pressure tendency: 0.03 inches (1.0 hPa) lower than three hours ago
ob: KDPG 012355Z 13015G23KT 1SM BLDU SCT110 BKN180 09/M04 A2968 RMK PK WND 13025/2320 SLP032 T00941038 10111 20071 57010 LAST
cycle: 0

Station Type Date Time Source
KDPG TAF UTC NOAA

Error!

Example: see airport list